Time;durP1;ratioP1;P1;durP2;ratioP2;P2;SDS_P1;SDS_P2;PMS_P1;PMS_P2;Temp;Humidity;BMP_temperature;BMP_pressure;BME280_temperature;BME280_humidity;BME280_pressure;Samples;Min_cycle;Max_cycle;Signal;HPM_P1;HPM_P2
2022/11/17 00:01:19;;;;;;;6.00;2.00;;;10.00;99.90;;;;;;5008068;28;20045;-80
2022/11/17 00:03:49;;;;;;;9.47;2.63;;;10.00;99.90;;;;;;5010757;28;20052;-82
2022/11/17 00:06:19;;;;;;;6.95;1.60;;;10.00;99.90;;;;;;5009038;28;20428;-80
2022/11/17 00:08:46;;;;;;;7.22;2.00;;;10.00;99.90;;;;;;5024361;28;20040;-81
2022/11/17 00:11:12;;;;;;;7.30;2.38;;;10.00;99.90;;;;;;5022267;28;20033;-81
2022/11/17 00:16:23;;;;;;;6.65;2.40;;;10.00;99.90;;;;;;5027028;28;20036;-82
2022/11/17 00:21:34;;;;;;;6.65;3.00;;;10.00;99.90;;;;;;5043320;28;20499;-83
2022/11/17 00:24:01;;;;;;;7.50;2.25;;;10.00;99.90;;;;;;5046391;28;20499;-84
2022/11/17 00:26:30;;;;;;;8.23;2.50;;;9.90;99.90;;;;;;5029319;28;20554;-81
2022/11/17 00:28:59;;;;;;;9.05;2.42;;;10.00;99.90;;;;;;5030736;28;20388;-82
2022/11/17 00:34:17;;;;;;;5.10;2.05;;;9.90;99.90;;;;;;5033115;28;20506;-83
2022/11/17 00:36:46;;;;;;;10.07;2.58;;;9.90;99.90;;;;;;5045303;28;20040;-79
2022/11/17 00:39:16;;;;;;;8.00;2.50;;;9.90;99.90;;;;;;5042206;28;20040;-80
2022/11/17 00:41:42;;;;;;;7.82;2.65;;;9.90;99.90;;;;;;5033577;28;20419;-83
2022/11/17 00:44:09;;;;;;;5.18;2.17;;;9.90;99.90;;;;;;5033569;28;20032;-83
2022/11/17 00:46:36;;;;;;;7.07;2.63;;;9.90;99.90;;;;;;5026295;28;20033;-84
2022/11/17 00:49:04;;;;;;;9.48;2.28;;;9.90;99.90;;;;;;5043687;28;20040;-83
2022/11/17 00:51:31;;;;;;;7.63;2.70;;;10.00;99.90;;;;;;5046945;28;20044;-83
2022/11/17 00:53:57;;;;;;;9.07;2.78;;;9.90;99.90;;;;;;5033855;28;20723;-86
2022/11/17 00:56:24;;;;;;;11.23;3.10;;;9.90;99.90;;;;;;5046274;28;20029;-82
2022/11/17 00:58:51;;;;;;;7.43;2.92;;;9.90;99.90;;;;;;5045285;28;20288;-82
2022/11/17 01:01:18;;;;;;;5.38;2.72;;;9.90;99.90;;;;;;5044541;28;20049;-85
2022/11/17 01:03:45;;;;;;;8.15;2.63;;;9.90;99.90;;;;;;5033474;28;20051;-84
2022/11/17 01:06:17;;;;;;;7.97;4.28;;;10.00;99.90;;;;;;5034093;28;20036;-83
2022/11/17 01:08:44;;;;;;;11.68;4.25;;;9.90;99.90;;;;;;5046651;28;20570;-80
2022/11/17 01:11:18;;;;;;;6.82;3.50;;;9.90;99.90;;;;;;5014684;28;20057;-81
2022/11/17 01:13:46;;;;;;;7.57;1.88;;;9.90;99.90;;;;;;5032740;28;20041;-83
2022/11/17 01:16:16;;;;;;;7.95;3.10;;;9.90;99.90;;;;;;5017167;28;20029;-87
2022/11/17 01:18:44;;;;;;;8.00;2.58;;;9.90;99.90;;;;;;5040880;28;20408;-85
2022/11/17 01:21:13;;;;;;;8.65;3.10;;;9.90;99.90;;;;;;5012525;28;20028;-79
2022/11/17 01:23:41;;;;;;;10.82;2.45;;;9.90;99.90;;;;;;5031138;28;20035;-83
2022/11/17 01:26:10;;;;;;;9.10;2.42;;;9.90;99.90;;;;;;5016372;28;20043;-85
2022/11/17 01:28:37;;;;;;;8.13;2.70;;;9.90;99.90;;;;;;5059724;28;20044;-77
2022/11/17 01:31:11;;;;;;;8.60;3.47;;;9.90;99.90;;;;;;5040410;28;20321;-86
2022/11/17 01:33:38;;;;;;;10.55;2.78;;;9.90;99.90;;;;;;5034692;28;20040;-83
2022/11/17 01:36:16;;;;;;;6.15;2.30;;;9.90;99.90;;;;;;5042635;28;20033;-83
2022/11/17 01:38:43;;;;;;;6.07;2.13;;;9.90;99.90;;;;;;5041840;28;20036;-83
2022/11/17 01:41:24;;;;;;;10.20;2.35;;;10.00;99.90;;;;;;5024516;28;20052;-82
2022/11/17 01:44:12;;;;;;;9.02;2.58;;;10.00;99.90;;;;;;5026356;28;20034;-82
2022/11/17 01:46:39;;;;;;;7.05;2.70;;;10.00;99.90;;;;;;5041026;28;20048;-84
2022/11/17 01:49:21;;;;;;;8.05;2.08;;;10.00;99.90;;;;;;5021669;28;20064;-78
2022/11/17 01:51:52;;;;;;;5.30;1.48;;;10.00;99.90;;;;;;5028159;28;20049;-81
2022/11/17 01:54:22;;;;;;;8.40;2.42;;;10.00;99.90;;;;;;5028149;28;20033;-84
2022/11/17 01:56:54;;;;;;;7.20;1.95;;;10.10;99.90;;;;;;5044171;28;20041;-83
2022/11/17 01:59:28;;;;;;;5.32;1.98;;;10.00;99.90;;;;;;5007330;28;20510;-81
2022/11/17 02:01:54;;;;;;;6.32;2.40;;;10.10;99.90;;;;;;5041512;28;20060;-85
2022/11/17 02:04:29;;;;;;;6.68;2.20;;;10.10;99.90;;;;;;5040974;28;20032;-81
2022/11/17 02:07:05;;;;;;;4.18;1.70;;;10.10;99.90;;;;;;5041700;28;20155;-81
2022/11/17 02:09:34;;;;;;;6.35;1.73;;;10.10;99.90;;;;;;5023095;28;20037;-81
2022/11/17 02:12:01;;;;;;;6.50;1.85;;;10.10;99.90;;;;;;5039892;28;20041;-81
2022/11/17 02:14:28;;;;;;;5.45;1.55;;;10.10;99.90;;;;;;5042718;28;20034;-79
2022/11/17 02:16:54;;;;;;;5.32;1.88;;;10.10;99.90;;;;;;5041180;28;20504;-83
2022/11/17 02:19:24;;;;;;;7.68;1.73;;;10.10;99.90;;;;;;5037707;28;20029;-79
2022/11/17 02:22:21;;;;;;;6.13;1.58;;;10.20;99.90;;;;;;5013770;28;20032;-82
2022/11/17 02:25:06;;;;;;;4.68;1.50;;;10.20;99.90;;;;;;5043374;28;20038;-81
2022/11/17 02:28:01;;;;;;;6.28;1.85;;;10.20;99.90;;;;;;5042291;28;20040;-79
2022/11/17 02:30:36;;;;;;;7.90;1.98;;;10.20;99.90;;;;;;5038527;28;20525;-79
2022/11/17 02:33:14;;;;;;;5.05;1.27;;;10.20;99.90;;;;;;5040270;28;20028;-81
2022/11/17 02:36:00;;;;;;;4.47;1.10;;;10.20;99.90;;;;;;5041953;28;20025;-83
2022/11/17 02:38:34;;;;;;;4.22;1.10;;;10.20;99.90;;;;;;5041937;28;20035;-77
2022/11/17 02:41:11;;;;;;;3.95;1.17;;;10.30;99.90;;;;;;5036677;28;20099;-80
2022/11/17 02:44:04;;;;;;;3.15;1.08;;;10.20;99.90;;;;;;5024276;28;20044;-80
2022/11/17 02:46:57;;;;;;;4.95;1.15;;;10.30;99.90;;;;;;5028138;28;20037;-81
2022/11/17 02:49:30;;;;;;;2.75;1.02;;;10.20;99.90;;;;;;5036038;28;20033;-80
2022/11/17 02:51:58;;;;;;;4.65;1.30;;;10.30;99.90;;;;;;5027295;28;20053;-82
2022/11/17 02:54:29;;;;;;;3.72;1.20;;;10.30;99.90;;;;;;5041578;28;20860;-78
2022/11/17 02:56:55;;;;;;;5.70;1.08;;;10.30;99.90;;;;;;5041394;28;20044;-81
2022/11/17 02:59:27;;;;;;;4.93;1.13;;;10.30;99.90;;;;;;5017274;28;20411;-83
2022/11/17 03:02:13;;;;;;;5.65;1.35;;;10.30;99.90;;;;;;5023034;28;20051;-79
2022/11/17 03:05:04;;;;;;;3.53;1.23;;;10.30;99.90;;;;;;5027050;28;20486;-83
2022/11/17 03:08:04;;;;;;;7.88;1.42;;;10.40;99.90;;;;;;5027034;28;20044;-80
2022/11/17 03:10:58;;;;;;;5.63;1.58;;;10.40;99.90;;;;;;5021556;28;20128;-79
2022/11/17 03:13:28;;;;;;;6.05;2.05;;;10.40;99.90;;;;;;5027227;28;20272;-84
2022/11/17 03:16:08;;;;;;;5.07;1.08;;;10.30;99.90;;;;;;5039246;28;20041;-79
2022/11/17 03:18:42;;;;;;;4.15;1.23;;;10.40;99.90;;;;;;5036136;28;20029;-78
2022/11/17 03:21:33;;;;;;;5.22;2.47;;;10.40;99.90;;;;;;5022356;28;20048;-79
2022/11/17 03:24:30;;;;;;;4.43;1.50;;;10.40;99.90;;;;;;5043312;28;20467;-83
2022/11/17 03:27:01;;;;;;;5.90;1.27;;;10.40;99.90;;;;;;5041001;28;20060;-81
2022/11/17 03:29:31;;;;;;;5.38;1.50;;;10.40;99.90;;;;;;5034489;28;20048;-81
2022/11/17 03:32:01;;;;;;;4.28;1.52;;;10.40;99.90;;;;;;5011510;28;20049;-82
2022/11/17 03:34:34;;;;;;;2.90;1.20;;;10.40;99.90;;;;;;5040300;28;20480;-82
2022/11/17 03:37:03;;;;;;;3.22;1.08;;;10.40;99.90;;;;;;5011472;28;20048;-82
2022/11/17 03:39:30;;;;;;;4.07;2.08;;;10.40;99.90;;;;;;5020267;28;21428;-80
2022/11/17 03:42:06;;;;;;;3.40;1.17;;;10.50;99.90;;;;;;5038050;28;20026;-81
2022/11/17 03:44:37;;;;;;;2.97;1.25;;;10.40;99.90;;;;;;5037511;28;20032;-80
2022/11/17 03:47:06;;;;;;;5.63;1.20;;;10.50;99.90;;;;;;5039121;28;20036;-81
2022/11/17 03:50:04;;;;;;;3.00;1.05;;;10.50;99.90;;;;;;5020446;28;20037;-77
2022/11/17 03:52:32;;;;;;;3.25;0.88;;;10.50;99.90;;;;;;5040128;28;20041;-79
2022/11/17 03:54:59;;;;;;;4.63;0.90;;;10.50;99.90;;;;;;5056165;28;20048;-78
2022/11/17 03:57:37;;;;;;;4.15;1.23;;;10.50;99.90;;;;;;5022546;28;20029;-81
2022/11/17 04:00:05;;;;;;;3.70;1.42;;;10.50;99.90;;;;;;5015098;28;20053;-79
2022/11/17 04:02:43;;;;;;;3.17;1.40;;;10.50;99.90;;;;;;5040915;28;20041;-83
2022/11/17 04:05:11;;;;;;;8.10;1.48;;;10.50;99.90;;;;;;5010314;28;20037;-81
2022/11/17 04:07:46;;;;;;;4.13;1.40;;;10.50;99.90;;;;;;5026216;28;20036;-81
2022/11/17 04:10:15;;;;;;;7.05;1.77;;;10.50;99.90;;;;;;5003239;28;20040;-80
2022/11/17 04:18:12;;;;;;;5.53;1.10;;;10.50;99.90;;;;;;5025617;28;20692;-81
2022/11/17 04:20:39;;;;;;;5.32;1.80;;;10.50;99.90;;;;;;5020392;28;20033;-81
2022/11/17 04:23:10;;;;;;;3.15;1.48;;;10.50;99.90;;;;;;5022880;28;20037;-80
2022/11/17 04:28:37;;;;;;;7.35;1.55;;;10.50;99.90;;;;;;5038549;28;20029;-80
2022/11/17 04:31:18;;;;;;;4.20;0.90;;;10.50;99.90;;;;;;5035436;28;20048;-81
2022/11/17 04:33:47;;;;;;;4.13;1.15;;;10.50;99.90;;;;;;5009952;28;20029;-80
2022/11/17 04:36:16;;;;;;;2.88;0.85;;;10.50;99.90;;;;;;5025727;28;20034;-77
2022/11/17 04:38:44;;;;;;;4.18;1.15;;;10.50;99.90;;;;;;5034491;28;20033;-79
2022/11/17 04:43:58;;;;;;;4.32;0.90;;;10.50;99.90;;;;;;5037319;28;20048;-77
2022/11/17 04:46:25;;;;;;;4.60;1.38;;;10.50;99.90;;;;;;5037444;28;20029;-81
2022/11/17 04:48:54;;;;;;;4.60;0.88;;;10.50;99.90;;;;;;5038369;28;20041;-79
2022/11/17 04:51:21;;;;;;;3.35;1.52;;;10.50;99.90;;;;;;5036792;28;20546;-81
2022/11/17 04:53:48;;;;;;;4.15;1.23;;;10.50;99.90;;;;;;5021069;28;20044;-80
2022/11/17 04:56:15;;;;;;;4.50;1.33;;;10.50;99.90;;;;;;5026703;28;20037;-81
2022/11/17 04:58:41;;;;;;;5.38;1.50;;;10.50;99.90;;;;;;5039747;28;20070;-78
2022/11/17 05:01:11;;;;;;;3.95;1.98;;;10.50;99.90;;;;;;5038481;28;20045;-81
2022/11/17 05:03:58;;;;;;;4.63;1.20;;;10.50;99.90;;;;;;5036625;28;20048;-80
2022/11/17 05:06:32;;;;;;;4.32;1.48;;;10.50;99.90;;;;;;5012713;28;20033;-80
2022/11/17 05:09:02;;;;;;;3.15;1.27;;;10.50;99.90;;;;;;5041118;28;20063;-80
2022/11/17 05:14:17;;;;;;;3.42;1.52;;;10.50;99.90;;;;;;5033319;28;20033;-79
2022/11/17 05:19:30;;;;;;;3.47;1.40;;;10.50;99.90;;;;;;5043533;28;20032;-80
2022/11/17 05:21:57;;;;;;;4.93;1.85;;;10.50;99.90;;;;;;5033159;28;20392;-80
2022/11/17 05:24:23;;;;;;;2.95;1.35;;;10.50;99.90;;;;;;5048053;28;20037;-77
2022/11/17 05:26:49;;;;;;;5.57;1.35;;;10.50;99.90;;;;;;5047593;28;20626;-80
2022/11/17 05:29:18;;;;;;;3.13;1.45;;;10.50;99.90;;;;;;5028965;28;20028;-79
2022/11/17 05:31:45;;;;;;;4.28;1.75;;;10.50;99.90;;;;;;5028526;28;20033;-83
2022/11/17 05:34:13;;;;;;;3.63;1.77;;;10.50;99.90;;;;;;5045113;28;20021;-80
2022/11/17 05:36:40;;;;;;;4.13;1.73;;;10.50;99.90;;;;;;5041235;28;20041;-81
2022/11/17 05:39:08;;;;;;;3.17;1.20;;;10.50;99.90;;;;;;5025513;28;20051;-77
2022/11/17 05:41:36;;;;;;;3.55;1.10;;;10.50;99.90;;;;;;5029314;28;20032;-80
2022/11/17 05:44:03;;;;;;;3.55;1.20;;;10.50;99.90;;;;;;5031685;28;20044;-80
2022/11/17 05:46:29;;;;;;;4.00;1.27;;;10.50;99.90;;;;;;5043125;28;20029;-79
2022/11/17 05:48:56;;;;;;;3.95;1.08;;;10.50;99.90;;;;;;5040667;28;20496;-79
2022/11/17 05:51:23;;;;;;;5.35;1.42;;;10.50;99.90;;;;;;5042215;28;20033;-80
2022/11/17 05:53:50;;;;;;;4.38;1.85;;;10.50;99.90;;;;;;5029219;28;20408;-80
2022/11/17 05:56:27;;;;;;;6.45;1.70;;;10.50;99.90;;;;;;5042329;28;20025;-80
2022/11/17 05:58:59;;;;;;;4.25;1.50;;;10.50;99.90;;;;;;5023024;28;20440;-79
2022/11/17 06:01:28;;;;;;;4.60;1.80;;;10.40;99.90;;;;;;5026384;28;20088;-81
2022/11/17 06:04:00;;;;;;;5.38;1.27;;;10.40;99.90;;;;;;5043314;28;20415;-83
2022/11/17 06:06:28;;;;;;;4.20;1.30;;;10.40;99.90;;;;;;5028877;28;20407;-84
2022/11/17 06:08:54;;;;;;;4.15;0.95;;;10.40;99.90;;;;;;5023747;28;20040;-78
2022/11/17 06:11:21;;;;;;;4.72;1.17;;;10.40;99.90;;;;;;5038769;28;20037;-83
2022/11/17 06:13:47;;;;;;;4.32;0.82;;;10.40;99.90;;;;;;5043556;28;20032;-80
2022/11/17 06:16:17;;;;;;;3.80;0.95;;;10.40;99.90;;;;;;5024556;28;20071;-80
2022/11/17 06:19:03;;;;;;;4.25;0.73;;;10.40;99.90;;;;;;5026465;28;20413;-80
2022/11/17 06:21:30;;;;;;;2.15;0.70;;;10.40;99.90;;;;;;5039873;28;20033;-83
2022/11/17 06:23:59;;;;;;;4.78;1.30;;;10.40;99.90;;;;;;5013681;28;20029;-84
2022/11/17 06:26:25;;;;;;;7.15;1.48;;;10.40;99.90;;;;;;5024886;28;20604;-84
2022/11/17 06:28:51;;;;;;;6.22;1.17;;;10.40;99.90;;;;;;5026666;28;20539;-79
2022/11/17 06:31:18;;;;;;;7.82;1.02;;;10.30;99.90;;;;;;5039185;28;20386;-78
2022/11/17 06:33:45;;;;;;;7.78;1.38;;;10.40;99.90;;;;;;5042682;28;20400;-83
2022/11/17 06:36:12;;;;;;;4.82;1.60;;;10.30;99.90;;;;;;5029037;28;20047;-81
2022/11/17 06:38:38;;;;;;;5.07;1.38;;;10.40;99.90;;;;;;5038940;28;20030;-81
2022/11/17 06:41:05;;;;;;;3.90;1.23;;;10.40;99.90;;;;;;5024281;28;20021;-83
2022/11/17 06:43:32;;;;;;;5.63;1.25;;;10.40;99.90;;;;;;5040607;28;20037;-81
2022/11/17 06:46:03;;;;;;;6.00;1.52;;;10.40;99.90;;;;;;5012633;28;20530;-84
2022/11/17 06:48:34;;;;;;;7.70;1.52;;;10.40;99.90;;;;;;5037911;28;20083;-80
2022/11/17 06:51:04;;;;;;;4.63;0.95;;;10.40;99.90;;;;;;5023235;28;20035;-81
2022/11/17 06:53:32;;;;;;;6.50;1.02;;;10.40;99.90;;;;;;5012016;28;20066;-82
2022/11/17 06:58:28;;;;;;;7.32;1.92;;;10.40;99.90;;;;;;5036019;28;20055;-81
2022/11/17 07:01:04;;;;;;;6.40;1.65;;;10.40;99.90;;;;;;5031912;28;20433;-82
2022/11/17 07:03:32;;;;;;;8.25;2.58;;;10.50;99.90;;;;;;5036163;28;20543;-80
2022/11/17 07:05:59;;;;;;;3.63;1.15;;;10.50;99.90;;;;;;5034237;28;20049;-82
2022/11/17 07:08:26;;;;;;;6.30;0.75;;;10.50;99.90;;;;;;5026095;28;20036;-78
2022/11/17 07:10:53;;;;;;;8.15;1.08;;;10.50;99.90;;;;;;5007025;28;20036;-84
2022/11/17 07:13:21;;;;;;;8.93;1.15;;;10.50;99.90;;;;;;5026441;28;20044;-83
2022/11/17 07:15:51;;;;;;;4.40;0.90;;;10.50;99.90;;;;;;5010597;28;20056;-79
2022/11/17 07:18:18;;;;;;;5.50;0.70;;;10.50;99.90;;;;;;5022782;28;20392;-83
2022/11/17 07:20:45;;;;;;;6.30;0.95;;;10.50;99.90;;;;;;5031896;28;20041;-79
2022/11/17 07:23:12;;;;;;;8.98;2.00;;;10.50;99.90;;;;;;5038179;28;20412;-83
2022/11/17 07:25:39;;;;;;;7.90;0.90;;;10.60;99.90;;;;;;5037577;28;20034;-84
2022/11/17 07:28:06;;;;;;;5.90;0.80;;;10.60;99.90;;;;;;5009487;28;20041;-83
2022/11/17 07:30:32;;;;;;;5.35;1.15;;;10.50;99.90;;;;;;5034896;28;20039;-81
2022/11/17 07:32:59;;;;;;;8.57;2.75;;;10.60;99.90;;;;;;5009752;28;20417;-82
2022/11/17 07:35:27;;;;;;;6.90;1.88;;;10.50;99.90;;;;;;5041189;28;20029;-84
2022/11/17 07:37:58;;;;;;;6.63;1.25;;;10.60;99.90;;;;;;5039865;28;20408;-82
2022/11/17 07:40:24;;;;;;;4.43;0.80;;;10.60;99.90;;;;;;5017514;28;20028;-82
2022/11/17 07:42:51;;;;;;;7.13;1.00;;;10.60;99.90;;;;;;5010053;28;20048;-80
2022/11/17 07:45:18;;;;;;;6.47;0.63;;;10.60;99.90;;;;;;5022760;28;20499;-81
2022/11/17 07:47:44;;;;;;;3.55;0.60;;;10.50;99.90;;;;;;5023028;28;20048;-83
2022/11/17 07:50:10;;;;;;;10.32;0.82;;;10.60;99.90;;;;;;5035063;28;20033;-82
2022/11/17 07:52:36;;;;;;;9.15;0.95;;;10.60;99.90;;;;;;5039613;28;20056;-82
2022/11/17 07:55:03;;;;;;;4.10;1.13;;;10.60;99.90;;;;;;5039171;28;20439;-83
2022/11/17 07:57:30;;;;;;;9.02;1.15;;;10.50;99.90;;;;;;5038702;28;20025;-86
2022/11/17 07:59:56;;;;;;;6.05;0.60;;;10.60;99.90;;;;;;5035414;28;20471;-84
2022/11/17 08:02:22;;;;;;;5.05;0.73;;;10.60;99.90;;;;;;5027760;28;20073;-84
2022/11/17 08:04:48;;;;;;;5.10;0.57;;;10.60;99.90;;;;;;5038680;28;20040;-82
2022/11/17 08:07:15;;;;;;;7.18;2.38;;;10.60;99.90;;;;;;5025826;28;20032;-80
2022/11/17 08:09:41;;;;;;;8.38;3.85;;;10.60;99.90;;;;;;5049773;28;20045;-83
2022/11/17 08:12:07;;;;;;;7.93;4.15;;;10.60;99.90;;;;;;5037982;28;20059;-82
2022/11/17 08:14:34;;;;;;;6.72;1.67;;;10.60;99.90;;;;;;5035878;28;20392;-78
2022/11/17 08:17:00;;;;;;;8.77;1.10;;;10.60;99.90;;;;;;5038705;28;20398;-83
2022/11/17 08:19:27;;;;;;;6.38;1.30;;;10.60;99.90;;;;;;5035390;28;20080;-83
2022/11/17 08:21:53;;;;;;;7.45;1.00;;;10.60;99.90;;;;;;5043454;28;20025;-80
2022/11/17 08:24:19;;;;;;;5.20;0.70;;;10.60;99.90;;;;;;5011470;28;20029;-80
2022/11/17 08:26:45;;;;;;;9.45;1.55;;;10.60;99.90;;;;;;5044479;28;20041;-85
2022/11/17 08:29:12;;;;;;;4.53;0.63;;;10.60;99.90;;;;;;5038637;28;20033;-78
2022/11/17 08:31:40;;;;;;;6.50;1.02;;;10.60;99.90;;;;;;5043312;28;20052;-82
2022/11/17 08:34:06;;;;;;;6.38;1.45;;;10.60;99.90;;;;;;5029197;28;20033;-79
2022/11/17 08:36:32;;;;;;;9.88;4.90;;;10.50;99.90;;;;;;5030196;28;20033;-85
2022/11/17 08:38:59;;;;;;;6.57;1.92;;;10.60;99.90;;;;;;5028136;28;20056;-77
2022/11/17 08:41:25;;;;;;;8.70;0.80;;;10.50;99.90;;;;;;5047522;28;20041;-82
2022/11/17 08:43:51;;;;;;;5.70;3.05;;;10.60;99.90;;;;;;5049118;28;20037;-84
2022/11/17 08:46:18;;;;;;;8.02;1.92;;;10.50;99.90;;;;;;5034989;28;20044;-84
2022/11/17 08:48:44;;;;;;;5.93;1.20;;;10.50;99.90;;;;;;5027931;28;20511;-83
2022/11/17 08:51:12;;;;;;;9.95;1.20;;;10.50;99.90;;;;;;5008056;28;20492;-78
2022/11/17 08:53:38;;;;;;;4.25;0.50;;;10.50;99.90;;;;;;5047600;28;20033;-84
2022/11/17 08:56:09;;;;;;;5.93;0.68;;;10.50;99.90;;;;;;5044072;28;20139;-83
2022/11/17 08:58:43;;;;;;;5.32;0.60;;;10.50;99.90;;;;;;5045088;28;20029;-81
2022/11/17 09:01:11;;;;;;;11.82;4.35;;;10.50;99.90;;;;;;5007489;28;20452;-80
2022/11/17 09:03:40;;;;;;;18.52;9.20;;;10.40;99.90;;;;;;5044077;28;20048;-81
2022/11/17 09:06:06;;;;;;;11.07;4.65;;;10.40;99.90;;;;;;5053692;28;20028;-81
2022/11/17 09:08:33;;;;;;;80.18;45.03;;;10.40;99.90;;;;;;5032917;28;20435;-81
2022/11/17 09:11:04;;;;;;;19.52;9.35;;;10.40;99.90;;;;;;5011374;28;20041;-78
2022/11/17 09:13:31;;;;;;;30.33;17.70;;;10.40;99.90;;;;;;5032973;28;20531;-78
2022/11/17 09:16:09;;;;;;;20.13;10.35;;;10.30;99.90;;;;;;5053043;28;20052;-80
2022/11/17 09:18:37;;;;;;;8.93;3.55;;;10.40;99.90;;;;;;5045655;28;20040;-76
2022/11/17 09:21:06;;;;;;;4.38;1.20;;;10.30;99.90;;;;;;5025370;28;20029;-81
2022/11/17 09:23:32;;;;;;;9.45;3.90;;;10.30;99.90;;;;;;5046013;28;20362;-82
2022/11/17 09:26:02;;;;;;;6.03;2.42;;;10.40;99.90;;;;;;5033866;28;20526;-80
2022/11/17 09:28:29;;;;;;;7.78;2.10;;;10.40;99.90;;;;;;5044803;28;20033;-79
2022/11/17 09:30:55;;;;;;;4.47;0.70;;;10.50;99.90;;;;;;5043215;28;20044;-81
2022/11/17 09:33:21;;;;;;;3.03;0.70;;;10.50;99.90;;;;;;5051808;28;20036;-79
2022/11/17 09:35:48;;;;;;;2.08;0.47;;;10.50;99.90;;;;;;5050127;28;20029;-77
2022/11/17 09:38:15;;;;;;;3.45;0.50;;;10.50;99.90;;;;;;5013521;28;20055;-80
2022/11/17 09:40:42;;;;;;;3.40;0.70;;;10.50;99.90;;;;;;5025374;28;20491;-79
2022/11/17 09:43:33;;;;;;;3.55;0.45;;;10.50;99.90;;;;;;5048698;28;20033;-79
2022/11/17 09:46:15;;;;;;;4.15;0.40;;;10.50;99.90;;;;;;5049178;28;20140;-80
2022/11/17 09:49:13;;;;;;;4.40;0.50;;;10.50;99.90;;;;;;5015937;28;20409;-79
2022/11/17 09:51:43;;;;;;;4.03;0.50;;;10.40;99.90;;;;;;5017309;28;20053;-78
2022/11/17 09:54:41;;;;;;;2.53;0.47;;;10.40;99.90;;;;;;5050486;28;20028;-80
2022/11/17 09:57:20;;;;;;;1.58;0.40;;;10.40;99.90;;;;;;5045855;28;20071;-77
2022/11/17 09:59:53;;;;;;;3.72;0.43;;;10.40;99.90;;;;;;5045545;28;20041;-76
2022/11/17 10:02:19;;;;;;;3.72;0.50;;;10.40;99.90;;;;;;5046530;28;20040;-77
2022/11/17 10:04:47;;;;;;;3.15;0.50;;;10.40;99.90;;;;;;5047060;28;20411;-79
2022/11/17 10:07:13;;;;;;;2.55;0.50;;;10.40;99.90;;;;;;5015319;28;20056;-79
2022/11/17 10:09:44;;;;;;;1.40;0.43;;;10.30;99.90;;;;;;5040143;28;20570;-84
2022/11/17 10:12:20;;;;;;;6.80;3.33;;;10.30;99.90;;;;;;5046115;28;20063;-81
2022/11/17 10:14:50;;;;;;;3.95;0.90;;;10.30;99.90;;;;;;5016896;28;20040;-80
2022/11/17 10:17:17;;;;;;;1.90;0.38;;;10.30;99.90;;;;;;5029133;28;20066;-76
2022/11/17 10:19:44;;;;;;;5.35;0.40;;;10.20;99.90;;;;;;5036430;28;20037;-80
2022/11/17 10:22:19;;;;;;;1.55;0.30;;;10.30;99.90;;;;;;5041711;28;20116;-80
2022/11/17 10:24:51;;;;;;;1.75;0.40;;;10.30;99.90;;;;;;4995281;28;20045;-77
2022/11/17 10:27:30;;;;;;;3.80;0.40;;;10.20;99.90;;;;;;5024919;28;20029;-81
2022/11/17 10:30:01;;;;;;;2.00;0.55;;;10.30;99.90;;;;;;5006493;28;20288;-78
2022/11/17 10:32:30;;;;;;;3.45;0.40;;;10.30;99.90;;;;;;5026608;28;20044;-80
2022/11/17 10:35:13;;;;;;;4.40;0.30;;;10.30;99.90;;;;;;5042453;28;20025;-78
2022/11/17 10:37:44;;;;;;;2.13;0.30;;;10.30;99.90;;;;;;5045594;28;20048;-79
2022/11/17 10:40:17;;;;;;;2.10;0.40;;;10.40;99.90;;;;;;5025168;28;20032;-80
2022/11/17 10:42:52;;;;;;;;;;;10.40;99.90;;;;;;5028162;28;20339;-80
2022/11/17 10:45:18;;;;;;;2.38;0.45;;;10.40;99.90;;;;;;5043735;28;19909;-80
2022/11/17 10:47:45;;;;;;;2.60;0.50;;;10.40;99.90;;;;;;5041400;28;20025;-80
2022/11/17 10:50:11;;;;;;;2.78;0.50;;;10.30;99.90;;;;;;5041314;28;20037;-80
2022/11/17 10:52:37;;;;;;;1.98;0.40;;;10.40;99.90;;;;;;5041405;28;20036;-80
2022/11/17 10:55:33;;;;;;;4.32;0.50;;;10.40;99.90;;;;;;5025641;28;20088;-79
2022/11/17 10:58:18;;;;;;;4.05;0.50;;;10.40;99.90;;;;;;5020786;28;20052;-79
2022/11/17 11:00:52;;;;;;;6.93;0.50;;;10.40;99.90;;;;;;5020987;28;20041;-80
2022/11/17 11:03:22;;;;;;;3.58;0.60;;;10.40;99.90;;;;;;5006075;28;20959;-77
2022/11/17 11:06:03;;;;;;;5.68;2.45;;;10.40;99.90;;;;;;5044998;28;20044;-77
2022/11/17 11:08:54;;;;;;;4.75;2.60;;;10.40;99.90;;;;;;5032067;28;20040;-79
2022/11/17 11:11:47;;;;;;;7.45;2.40;;;10.40;99.90;;;;;;5020452;28;20045;-79
2022/11/17 11:14:35;;;;;;;;;;;10.40;99.90;;;;;;5046164;28;20507;-82
2022/11/17 11:17:11;;;;;;;10.60;5.07;;;10.50;99.90;;;;;;5033612;28;19912;-80
2022/11/17 11:19:37;;;;;;;6.50;1.63;;;10.50;99.90;;;;;;5042750;28;20649;-78
2022/11/17 11:22:23;;;;;;;2.78;0.40;;;10.50;99.90;;;;;;5047995;28;20043;-77
2022/11/17 11:25:02;;;;;;;4.07;0.60;;;10.60;99.90;;;;;;5050692;28;20514;-80
2022/11/17 11:27:59;;;;;;;2.65;0.32;;;10.50;99.90;;;;;;5049117;28;20028;-81
2022/11/17 11:30:26;;;;;;;2.13;0.38;;;10.60;99.90;;;;;;5042390;28;20052;-80
2022/11/17 11:33:29;;;;;;;2.50;0.55;;;10.60;99.90;;;;;;5047384;28;20041;-79
2022/11/17 11:36:25;;;;;;;7.10;0.30;;;10.60;99.90;;;;;;5051193;28;20747;-79
2022/11/17 11:39:03;;;;;;;2.03;0.40;;;10.60;99.90;;;;;;5030319;28;20037;-81
2022/11/17 11:42:13;;;;;;;2.67;0.50;;;10.60;99.90;;;;;;5027322;28;20033;-81
2022/11/17 11:45:17;;;;;;;5.88;0.93;;;10.60;99.90;;;;;;5047372;28;20052;-80
2022/11/17 11:47:46;;;;;;;4.45;0.40;;;10.60;99.90;;;;;;5030862;28;20036;-80
2022/11/17 11:50:21;;;;;;;3.25;0.40;;;10.70;99.90;;;;;;5020425;28;20396;-80
2022/11/17 11:53:09;;;;;;;2.63;0.30;;;10.60;99.90;;;;;;5015973;28;20037;-80
2022/11/17 11:55:38;;;;;;;1.92;0.30;;;10.60;99.90;;;;;;5029396;28;20455;-78
2022/11/17 11:58:37;;;;;;;2.92;0.60;;;10.60;99.90;;;;;;5048152;28;20427;-78
2022/11/17 12:01:08;;;;;;;1.60;0.30;;;10.60;99.90;;;;;;5023793;28;20052;-80
2022/11/17 12:03:45;;;;;;;4.65;0.40;;;10.60;99.90;;;;;;5032104;28;20538;-79
2022/11/17 12:06:40;;;;;;;3.95;0.70;;;10.60;99.90;;;;;;5030228;28;20392;-81
2022/11/17 12:09:21;;;;;;;11.40;5.03;;;10.60;99.90;;;;;;5040836;28;20037;-79
2022/11/17 12:12:01;;;;;;;7.53;3.45;;;10.60;99.90;;;;;;5013907;28;20041;-77
2022/11/17 12:14:30;;;;;;;4.80;1.30;;;10.60;99.90;;;;;;5028577;28;20055;-80
2022/11/17 12:17:12;;;;;;;4.70;1.88;;;10.60;99.90;;;;;;5047886;28;20378;-83
2022/11/17 12:19:55;;;;;;;5.55;2.10;;;10.70;99.90;;;;;;5043083;28;20052;-85
2022/11/17 12:22:28;;;;;;;3.95;1.67;;;10.70;99.90;;;;;;5012128;28;20040;-79
2022/11/17 12:25:16;;;;;;;3.92;0.75;;;10.70;99.90;;;;;;5041510;28;20048;-79
2022/11/17 12:27:45;;;;;;;4.18;0.43;;;10.70;99.90;;;;;;5044316;28;20032;-80
2022/11/17 12:30:32;;;;;;;3.78;0.60;;;10.70;99.90;;;;;;5034074;28;21156;-81
2022/11/17 12:33:00;;;;;;;2.63;0.50;;;10.70;99.90;;;;;;5038859;28;20045;-81
2022/11/17 12:35:32;;;;;;;3.63;0.50;;;10.80;99.90;;;;;;5030702;28;20035;-82
2022/11/17 12:38:16;;;;;;;4.30;0.50;;;10.80;99.90;;;;;;5038083;28;20408;-80
2022/11/17 12:40:48;;;;;;;3.38;0.40;;;10.80;99.90;;;;;;5033537;28;20283;-81
2022/11/17 12:43:14;;;;;;;2.78;0.40;;;10.90;99.90;;;;;;5048272;28;20036;-78
2022/11/17 12:45:58;;;;;;;4.57;0.60;;;10.90;99.90;;;;;;5045909;28;20424;-82
2022/11/17 12:48:34;;;;;;;12.98;6.60;;;10.90;99.90;;;;;;5031593;28;20032;-78
2022/11/17 12:51:15;;;;;;;29.73;16.20;;;10.90;99.90;;;;;;5041590;28;20470;-80
2022/11/17 12:54:15;;;;;;;8.02;3.28;;;11.00;99.90;;;;;;5013631;28;20547;-79
2022/11/17 12:57:11;;;;;;;7.90;3.53;;;10.90;99.90;;;;;;5041848;28;20610;-81
2022/11/17 13:00:09;;;;;;;6.90;3.83;;;10.90;99.90;;;;;;5039234;28;20475;-84
2022/11/17 13:02:51;;;;;;;8.93;5.40;;;10.90;99.90;;;;;;5044400;28;20048;-79
2022/11/17 13:05:20;;;;;;;5.97;2.47;;;10.90;99.90;;;;;;5017170;28;20037;-81
2022/11/17 13:07:47;;;;;;;8.05;4.32;;;10.90;99.90;;;;;;5045257;28;20029;-81
2022/11/17 13:10:28;;;;;;;4.63;1.65;;;10.90;99.90;;;;;;5022357;28;20507;-79
2022/11/17 13:13:21;;;;;;;2.38;1.15;;;10.90;99.90;;;;;;5022154;28;20048;-79
2022/11/17 13:15:52;;;;;;;2.08;0.40;;;10.90;99.90;;;;;;5042284;28;20029;-79
2022/11/17 13:18:27;;;;;;;2.92;0.50;;;10.90;99.90;;;;;;5027588;28;20037;-80
2022/11/17 13:20:53;;;;;;;3.45;0.52;;;10.90;99.90;;;;;;5034147;28;20064;-75
2022/11/17 13:23:26;;;;;;;2.78;0.50;;;10.90;99.90;;;;;;5038472;28;20029;-77
2022/11/17 13:26:17;;;;;;;1.52;0.40;;;10.80;99.90;;;;;;5026007;28;20487;-86
2022/11/17 13:28:44;;;;;;;2.25;0.60;;;10.80;99.90;;;;;;5033813;28;20403;-77
2022/11/17 13:31:19;;;;;;;7.28;1.30;;;10.80;99.90;;;;;;5034383;28;20041;-81
2022/11/17 13:34:05;;;;;;;5.38;0.60;;;10.70;99.90;;;;;;5011022;28;20040;-81
2022/11/17 13:36:32;;;;;;;4.25;0.40;;;10.70;99.90;;;;;;5043236;28;20432;-83
2022/11/17 13:39:02;;;;;;;3.20;0.55;;;10.70;99.90;;;;;;5040223;28;20033;-80
2022/11/17 13:41:38;;;;;;;3.50;0.55;;;10.70;99.90;;;;;;5039398;28;21077;-81
2022/11/17 13:44:10;;;;;;;2.67;0.30;;;10.70;99.90;;;;;;5044247;28;20036;-79